Flight Track Log - Related Links

Times and Time Zones

All times are in EDT time to prevent confusion due to time zone crossing. See the N960DL flight status page for this flight to view local times or setup timezone preferences in your user account.

Time Position Orientation Groundspeed Altitude Reporting Facility
EDT Latitude Longitude Course Direction KTS MPH feet Rate Location/Type
Thu 10:28:55 AM 33.6333 -84.4833 160° South 189 217 2,600  Level Atlanta TRACON
Thu 10:29:55 AM 33.6333 -84.5667 270° West 254 292 4,700 2,500 Climbing Atlanta TRACON
Thu 10:30:55 AM 33.6333 -84.6500 270° West 273 314 7,600 2,571 Climbing Atlanta TRACON
Thu 10:31:00 AM 33.2606 -84.2359 168° South  Level FlightAware Approximate
Thu 10:31:54 AM 33.5692 -84.6994 213° Southwest 293 337 9,800  Level Atlanta Center
Thu 10:32:00 AM 33.1441 -84.2068 168° South  Level FlightAware Approximate
Thu 10:32:54 AM 33.4856 -84.6939 177° South 283 326 10,000  Level Atlanta Center
Thu 10:33:00 AM 33.0273 -84.1813 164° South  Level FlightAware Approximate
Thu 10:33:54 AM 33.3856 -84.6781 172° South 313 360 10,300  Level Atlanta Center
Thu 10:34:00 AM 32.9142 -84.1373 160° South  Level FlightAware Approximate
Thu 10:34:54 AM 33.3108 -84.5833 133° Southeast 355 409 13,900  Level Atlanta Center
Thu 10:35:54 AM 33.2403 -84.4983 135° Southeast 355 409 16,300 2,200 Climbing Atlanta Center
Thu 10:36:54 AM 33.1403 -84.4481 157° South 370 426 18,300 1,600 Climbing Atlanta Center
Thu 10:37:54 AM 33.0361 -84.3956 157° South 390 449 19,500 1,250 Climbing Atlanta Center
Thu 10:38:54 AM 32.9214 -84.3383 157° South 432 497 20,800 1,250 Climbing Atlanta Center
Thu 10:39:54 AM 32.8025 -84.2811 158° South 457 526 22,000 1,250 Climbing Atlanta Center
Thu 10:40:54 AM 32.6817 -84.2117 154° Southeast 473 544 23,300 1,300 Climbing Atlanta Center
Thu 10:41:54 AM 32.5544 -84.1472 157° South 478 550 24,600 1,550 Climbing Atlanta Center
Thu 10:42:54 AM 32.4292 -84.0856 157° South 488 562 26,400 1,750 Climbing Atlanta Center
Thu 10:43:54 AM 32.3019 -84.0217 157° South 488 562 28,100 1,400 Climbing Atlanta Center
Thu 10:44:54 AM 32.1953 -83.9283 143° Southeast 486 559 29,200 1,600 Climbing Atlanta Center
Thu 10:45:54 AM 32.0886 -83.8331 143° Southeast 486 559 31,300 1,292 Climbing Atlanta Center
Thu 10:47:18 AM 31.9469 -83.7006 142° Southeast 500 575 32,300 625 Climbing Jacksonville Center
Thu 10:48:18 AM 31.8431 -83.6067 142° Southeast 473 544 32,800 350 Climbing Jacksonville Center
Thu 10:49:18 AM 31.7347 -83.5522 157° South 464 534 33,000 100 Climbing Jacksonville Center
Thu 10:50:18 AM 31.6161 -83.4806 153° Southeast 469 540 33,000  Level Jacksonville Center
Thu 10:51:18 AM 31.4972 -83.4164 155° Southeast 469 540 33,000  Level Jacksonville Center
Thu 10:52:18 AM 31.3764 -83.3622 159° South 469 540 33,000  Level Jacksonville Center
Thu 10:53:18 AM 31.2533 -83.3153 162° South 469 540 33,000  Level Jacksonville Center
Thu 10:54:18 AM 31.1325 -83.2664 161° South 469 540 33,000  Level Jacksonville Center
Thu 10:55:18 AM 31.0094 -83.2150 160° South 469 540 33,000  Level Jacksonville Center
Thu 10:56:18 AM 30.8822 -83.1636 161° South 469 540 33,000  Level Jacksonville Center
Thu 10:57:18 AM 30.7508 -83.1100 161° South 469 540 33,000  Level Jacksonville Center
Thu 10:58:18 AM 30.6275 -83.0592 160° South 463 533 33,000  Level Jacksonville Center
Thu 10:59:18 AM 30.5067 -83.0083 160° South 463 533 33,000  Level Jacksonville Center
Thu 11:00:18 AM 30.3833 -82.9600 161° South 468 539 33,000  Level Jacksonville Center
Thu 11:01:18 AM 30.2603 -82.9094 160° South 468 539 33,000  Level Jacksonville Center
Thu 11:02:18 AM 30.1392 -82.8589 160° South 468 539 33,000  Level Jacksonville Center
Thu 11:03:18 AM 30.0181 -82.8086 160° South 468 539 33,000  Level Jacksonville Center
Thu 11:04:18 AM 29.9053 -82.7681 163° South 474 545 33,000  Level Jacksonville Center
Thu 11:05:18 AM 29.7842 -82.7203 161° South 469 540 33,000  Level Jacksonville Center
Thu 11:06:18 AM 29.6608 -82.6703 161° South 464 534 33,000  Level Jacksonville Center
Thu 11:07:18 AM 29.5375 -82.6181 160° South 464 534 33,000  Level Jacksonville Center
Thu 11:08:18 AM 29.4144 -82.5708 162° South 464 534 33,000  Level Jacksonville Center
Thu 11:09:18 AM 29.2953 -82.5236 161° South 464 534 33,000  Level Jacksonville Center
Thu 11:10:18 AM 29.1719 -82.4739 161° South 464 534 33,000  Level Jacksonville Center
Thu 11:11:18 AM 29.0486 -82.4531 172° South 464 534 33,000  Level Jacksonville Center
Thu 11:12:18 AM 28.9236 -82.4892 194° South 443 510 33,000  Level Jacksonville Center
Thu 11:13:18 AM 28.8006 -82.4944 182° South 449 517 33,000  Level Jacksonville Center
Thu 11:14:18 AM 28.6606 -82.4786 174° South 449 517 33,000  Level Jacksonville Center
Thu 11:17:15 AM 28.3028 -82.4350 174° South 456 525 33,000  Level Miami Center
Thu 11:18:15 AM 28.1764 -82.4192 174° South 456 525 33,000  Level Miami Center
Thu 11:19:15 AM 28.0517 -82.4061 175° South 461 531 33,000  Level Miami Center
Thu 11:20:15 AM 27.9269 -82.3906 174° South 461 531 33,000  Level Miami Center
Thu 11:21:15 AM 27.8003 -82.3772 175° South 461 531 33,000  Level Miami Center
Thu 11:22:15 AM 27.6778 -82.3619 174° South 461 531 33,000  Level Miami Center
Thu 11:23:15 AM 27.5386 -82.3483 175° South 461 531 33,000  Level Miami Center
Thu 11:24:15 AM 27.4119 -82.3306 173° South 461 531 33,000  Level Miami Center
Thu 11:25:15 AM 27.2850 -82.3175 175° South 461 531 33,000  Level Miami Center
Thu 11:26:15 AM 27.1564 -82.2997 173° South 466 536 33,000  Level Miami Center
Thu 11:27:15 AM 27.0294 -82.2869 175° South 461 531 33,000 -700 Level Miami Center
Thu 11:28:15 AM 26.9050 -82.2694 173° South 461 531 31,600 -1,550 Descending Miami Center
Thu 11:29:15 AM 26.7828 -82.2428 169° South 461 531 29,900 -1,950 Descending Miami Center
Thu 11:30:15 AM 26.6969 -82.1414 133° Southeast 426 490 27,700 -1,650 Descending Miami Center
Thu 11:31:15 AM 26.6175 -82.0264 128° Southeast 443 510 26,600 -850 Descending Miami Center
Thu 11:32:15 AM 26.5422 -81.9117 126° Southeast 443 510 26,000 -700 Descending Miami Center
Thu 11:33:15 AM 26.4767 -81.8136 127° Southeast 443 510 25,200 -900 Descending Miami Center
Thu 11:34:15 AM 26.4072 -81.7042 125° Southeast 443 510 24,200 -1,000 Descending Miami Center
Thu 11:35:15 AM 26.3314 -81.5967 128° Southeast 443 510 23,200 -1,750 Descending Miami Center
Thu 11:36:15 AM 26.2597 -81.4897 127° Southeast 438 504 20,700 -2,450 Descending Miami Center
Thu 11:37:15 AM 26.1878 -81.3872 128° Southeast 427 491 18,300 -2,400 Descending Miami Center
Thu 11:38:15 AM 26.1139 -81.2806 128° Southeast 413 475 15,900 -2,069 Descending Miami Center
Thu 11:39:11 AM 26.0514 -81.1972 130° Southeast 384 442 14,300 -1,525 Descending Miami Center
Thu 11:40:13 AM 25.9894 -81.1072 127° Southeast 311 358 12,900 -1,512 Descending Miami Center
Thu 11:41:14 AM 25.9372 -81.0336 128° Southeast 301 346 11,200 -1,475 Descending Miami Center
Thu 11:42:15 AM 25.8953 -80.9675 125° Southeast 306 352 9,900 -1,140 Descending Miami Center
Thu 11:43:15 AM 25.8831 -80.8817 99° East 276 318 8,900 -1,317 Descending Miami Center
Thu 11:44:18 AM 25.8753 -80.7847 95° East 276 318 7,200 -1,200 Descending Miami Center
Thu 11:45:15 AM 25.8769 -80.7178 88° East 264 304 6,500 -1,026 Descending Miami Center
Thu 11:46:15 AM 25.8767 -80.6508 90° East 239 275 5,200 -1,350 Descending Miami Center
Thu 11:47:15 AM 25.8761 -80.5861 91° East 221 254 3,800 -1,100 Descending Miami Center
Thu 11:48:15 AM 25.8761 -80.5122 90° East 215 247 3,000 -372 Descending Miami Center
Thu 11:49:24 AM 25.8653 -80.4425 100° East 212 244 3,000 -484 Level Miami Center
Thu 11:50:19 AM 25.8394 -80.3889 118° Southeast 209 241 2,000 -1,138 Descending Miami Center
Thu 11:51:20 AM 25.8175 -80.3442 119° Southeast 146 168 800 -1,180 Descending Miami Center

Login

Don't have an account? Register now (free) for customized features, flight alerts, and more!